Time;durP1;ratioP1;P1;durP2;ratioP2;P2;SDS_P1;SDS_P2;PMS_P1;PMS_P2;Temp;Humidity;BMP_temperature;BMP_pressure;BME280_temperature;BME280_humidity;BME280_pressure;Samples;Min_cycle;Max_cycle;Signal;HPM_P1;HPM_P2
2021/06/04 00:04:36;;;;;;;3.35;2.90;;;;;;;16.83;56.46;100627.34;10585830;28;20382;-73
2021/06/04 00:09:37;;;;;;;3.88;3.08;;;;;;;16.75;56.77;100618.88;10586276;28;20134;-73
2021/06/04 00:14:42;;;;;;;3.75;3.45;;;;;;;16.64;57.16;100616.69;10585870;28;20095;-72
2021/06/04 00:19:44;;;;;;;3.75;2.97;;;;;;;16.74;56.94;100625.97;10588713;28;20458;-72
2021/06/04 00:24:49;;;;;;;3.83;3.17;;;;;;;16.73;56.83;100618.91;10585502;28;20043;-73
2021/06/04 00:29:51;;;;;;;6.03;3.33;;;;;;;16.71;56.83;100622.56;10585772;28;20047;-72
2021/06/04 00:34:53;;;;;;;3.25;3.05;;;;;;;16.73;57.37;100618.06;10583873;28;20043;-73
2021/06/04 00:39:54;;;;;;;5.20;3.55;;;;;;;16.65;56.99;100623.72;10590327;28;20050;-73
2021/06/04 00:44:59;;;;;;;4.45;3.90;;;;;;;16.53;57.12;100621.66;10583761;28;20039;-73
2021/06/04 00:50:08;;;;;;;9.68;3.78;;;;;;;16.42;57.63;100623.94;10584693;28;20456;-72
2021/06/04 00:55:16;;;;;;;3.95;3.55;;;;;;;16.42;57.51;100624.78;10584920;28;20044;-72
2021/06/04 01:00:28;;;;;;;3.33;3.13;;;;;;;16.31;57.44;100616.47;10584280;28;20417;-72
2021/06/04 01:05:34;;;;;;;5.15;3.85;;;;;;;16.24;57.76;100610.59;10588586;28;20477;-73
2021/06/04 01:11:16;;;;;;;6.68;3.20;;;;;;;16.15;57.64;100619.81;10594346;28;20043;-71
2021/06/04 01:16:26;;;;;;;3.75;3.47;;;;;;;16.05;58.38;100617.66;10593083;28;20127;-72
2021/06/04 01:21:58;;;;;;;6.13;3.53;;;;;;;16.03;57.97;100617.75;10592907;28;20043;-72
2021/06/04 01:27:05;;;;;;;3.70;3.40;;;;;;;16.04;57.85;100627.41;10551331;28;20043;-72
2021/06/04 01:32:17;;;;;;;4.60;3.50;;;;;;;15.80;58.38;100625.84;10545261;28;20075;-72
2021/06/04 01:37:26;;;;;;;3.85;3.55;;;;;;;15.84;58.44;100628.28;10527417;28;20040;-72
2021/06/04 01:42:43;;;;;;;3.90;3.60;;;;;;;16.03;57.81;100625.69;10544904;28;20055;-72
2021/06/04 01:47:56;;;;;;;3.28;3.08;;;;;;;15.93;57.96;100620.84;10530572;28;20383;-72
2021/06/04 01:53:10;;;;;;;6.93;3.47;;;;;;;15.95;58.06;100624.31;10510788;28;20071;-72
2021/06/04 01:58:26;;;;;;;4.20;3.90;;;;;;;15.87;58.10;100617.56;10528168;28;20044;-71
2021/06/04 02:03:31;;;;;;;3.80;3.58;;;;;;;15.84;58.45;100611.53;10573758;28;20067;-72
2021/06/04 02:08:46;;;;;;;4.45;4.05;;;;;;;15.84;58.23;100614.16;10594170;28;20062;-71
2021/06/04 02:13:52;;;;;;;4.45;3.80;;;;;;;15.80;58.04;100607.28;10588294;28;20416;-72
2021/06/04 02:19:08;;;;;;;;;;;;;;;15.76;57.87;100603.03;10589427;28;20096;-72
2021/06/04 02:24:25;;;;;;;3.40;3.20;;;;;;;15.62;58.83;100599.19;10588633;28;19999;-73
2021/06/04 02:29:37;;;;;;;4.65;3.80;;;;;;;15.84;57.15;100601.78;10591170;28;20062;-72
2021/06/04 02:34:50;;;;;;;4.28;3.97;;;;;;;15.76;57.83;100611.00;10579868;22;20048;-73
2021/06/04 02:39:58;;;;;;;4.03;3.72;;;;;;;15.89;56.99;100604.22;10510063;28;20074;-72
2021/06/04 02:45:24;;;;;;;3.97;3.67;;;;;;;15.96;57.43;100599.53;10527595;28;20147;-72
2021/06/04 02:50:43;;;;;;;3.95;3.65;;;;;;;15.97;56.55;100593.28;10527906;28;20473;-71
2021/06/04 02:56:13;;;;;;;5.07;3.30;;;;;;;15.91;56.75;100598.88;10526145;28;20131;-71
2021/06/04 03:01:19;;;;;;;3.90;3.60;;;;;;;15.81;57.43;100601.06;10546065;28;20396;-70
2021/06/04 03:06:25;;;;;;;4.30;3.90;;;;;;;16.04;56.24;100605.34;10544154;28;20036;-72
2021/06/04 03:11:32;;;;;;;4.47;3.28;;;;;;;16.01;57.00;100606.34;10526019;28;20044;-72
2021/06/04 03:16:35;;;;;;;3.70;3.40;;;;;;;16.04;56.47;100608.00;10526106;28;20093;-71
2021/06/04 03:21:49;;;;;;;3.72;3.35;;;;;;;15.99;56.19;100600.25;10543452;28;20421;-71
2021/06/04 03:26:51;;;;;;;3.70;3.20;;;;;;;15.97;56.45;100599.44;10543271;28;20081;-71
2021/06/04 03:32:03;;;;;;;4.65;3.60;;;;;;;16.02;56.34;100597.44;10543500;28;20123;-72
2021/06/04 03:37:07;;;;;;;3.10;2.90;;;;;;;16.06;56.27;100601.69;10542901;28;20038;-71
2021/06/04 03:42:18;;;;;;;6.90;3.17;;;;;;;16.18;55.84;100594.97;10525620;28;20040;-72
2021/06/04 03:47:21;;;;;;;3.38;3.13;;;;;;;16.28;55.58;100593.59;10544011;28;20482;-71
2021/06/04 03:52:24;;;;;;;5.93;5.43;;;;;;;16.28;55.52;100598.03;10524751;28;20048;-71
2021/06/04 03:57:30;;;;;;;3.95;3.33;;;;;;;16.45;55.10;100602.56;10507679;28;20135;-71
2021/06/04 04:02:32;;;;;;;3.88;3.42;;;;;;;16.40;55.14;100600.13;10541438;28;20074;-71
2021/06/04 04:07:34;;;;;;;3.85;2.90;;;;;;;16.37;55.41;100605.56;10523374;28;20051;-72
2021/06/04 04:12:36;;;;;;;4.00;3.60;;;;;;;16.47;54.75;100609.53;10541683;28;20048;-72
2021/06/04 04:17:38;;;;;;;5.35;3.22;;;;;;;16.35;55.11;100596.84;10542896;28;20438;-71
2021/06/04 04:22:40;;;;;;;3.10;2.90;;;;;;;16.29;55.52;100591.78;10540965;28;20040;-72
2021/06/04 04:27:42;;;;;;;2.75;2.42;;;;;;;16.49;54.68;100589.09;10540973;28;20043;-71
2021/06/04 04:32:44;;;;;;;3.38;3.10;;;;;;;16.48;55.20;100602.44;10540840;28;20062;-72
2021/06/04 04:37:46;;;;;;;4.10;3.20;;;;;;;16.54;54.86;100595.03;10540603;28;20036;-71
2021/06/04 04:42:48;;;;;;;4.15;3.08;;;;;;;16.59;54.61;100598.31;10521997;28;20069;-72
2021/06/04 04:47:50;;;;;;;4.15;3.38;;;;;;;16.56;55.29;100592.31;10541434;28;20044;-71
2021/06/04 04:52:53;;;;;;;3.47;3.15;;;;;;;16.55;55.16;100590.56;10542198;28;20052;-71
2021/06/04 04:57:55;;;;;;;3.78;3.22;;;;;;;16.48;55.75;100605.09;10540568;28;20044;-72
2021/06/04 05:02:57;;;;;;;4.78;3.75;;;;;;;16.59;55.30;100600.97;10540252;28;20047;-71
2021/06/04 05:08:00;;;;;;;5.28;3.25;;;;;;;16.70;55.22;100599.63;10539624;28;20040;-72
2021/06/04 05:13:05;;;;;;;4.55;3.80;;;;;;;16.74;55.50;100598.56;10541190;28;20506;-71
2021/06/04 05:18:09;;;;;;;3.45;3.15;;;;;;;17.05;55.36;100595.28;10521522;28;20382;-72
2021/06/04 05:23:12;;;;;;;3.92;3.58;;;;;;;17.04;55.20;100583.75;10539475;28;20059;-72
2021/06/04 05:28:16;;;;;;;4.95;3.50;;;;;;;17.10;55.05;100591.44;10521743;28;20044;-72
2021/06/04 05:33:21;;;;;;;4.57;3.28;;;;;;;17.11;54.08;100592.31;10540484;28;20551;-71
2021/06/04 05:38:23;;;;;;;4.57;3.28;;;;;;;17.01;54.90;100589.25;10539778;28;20491;-72
2021/06/04 05:43:32;;;;;;;10.05;2.97;;;;;;;17.19;54.05;100595.44;10504486;28;20063;-72
2021/06/04 05:48:34;;;;;;;3.85;3.00;;;;;;;17.25;54.13;100595.13;10539034;28;20036;-72
2021/06/04 05:53:38;;;;;;;4.05;3.40;;;;;;;17.36;54.06;100599.91;10543458;28;20105;-72
2021/06/04 05:58:40;;;;;;;3.78;3.40;;;;;;;17.32;54.19;100596.53;10548337;28;20402;-72
2021/06/04 06:03:42;;;;;;;5.40;3.03;;;;;;;17.46;54.28;100594.97;10547632;28;20044;-72
2021/06/04 06:08:44;;;;;;;6.68;3.58;;;;;;;17.64;54.07;100602.00;10547076;28;20097;-72
2021/06/04 06:13:46;;;;;;;4.55;3.55;;;;;;;17.72;53.88;100599.81;10547661;28;20409;-72
2021/06/04 06:18:48;;;;;;;4.20;3.20;;;;;;;17.67;53.61;100608.97;10528017;28;20048;-72
2021/06/04 06:23:49;;;;;;;5.28;3.38;;;;;;;17.82;53.54;100603.72;10546412;28;20477;-73
2021/06/04 06:28:53;;;;;;;5.43;3.60;;;;;;;18.03;53.11;100603.53;10527609;28;20040;-72
2021/06/04 06:33:54;;;;;;;3.63;3.00;;;;;;;18.24;52.83;100601.50;10546336;28;20413;-74
2021/06/04 06:39:00;;;;;;;7.35;3.20;;;;;;;18.22;52.30;100606.06;10528807;28;20051;-74
2021/06/04 06:44:02;;;;;;;3.67;3.07;;;;;;;18.31;54.20;100605.56;10527935;28;20059;-72
2021/06/04 06:49:04;;;;;;;6.18;2.95;;;;;;;18.55;53.96;100612.19;10545962;28;20093;-73
2021/06/04 06:54:09;;;;;;;4.20;3.25;;;;;;;18.79;53.33;100611.78;10544567;28;20089;-71
2021/06/04 06:59:12;;;;;;;3.58;3.15;;;;;;;19.00;52.01;100612.38;10544902;28;20040;-72
2021/06/04 07:04:14;;;;;;;4.07;3.30;;;;;;;19.05;52.12;100613.81;10527037;28;20135;-73
2021/06/04 07:09:17;;;;;;;3.75;3.17;;;;;;;18.94;52.90;100618.88;10526933;28;20052;-73
2021/06/04 07:14:25;;;;;;;8.18;3.35;;;;;;;19.26;51.82;100611.72;10544016;28;20055;-72
2021/06/04 07:19:28;;;;;;;5.40;3.30;;;;;;;19.13;52.63;100608.91;10527248;28;20067;-73
2021/06/04 07:24:30;;;;;;;8.38;3.53;;;;;;;19.23;52.98;100605.72;10544573;28;20409;-73
2021/06/04 07:29:32;;;;;;;4.40;3.50;;;;;;;19.33;52.78;100613.06;10543591;28;20036;-71
2021/06/04 07:34:34;;;;;;;4.63;3.15;;;;;;;19.39;52.60;100611.84;10525981;28;20055;-73
2021/06/04 07:39:37;;;;;;;3.38;2.80;;;;;;;19.40;53.01;100614.41;10543231;28;20067;-72
2021/06/04 07:44:39;;;;;;;3.83;3.42;;;;;;;19.74;53.10;100619.56;10542980;28;20139;-72
2021/06/04 07:49:41;;;;;;;4.13;3.30;;;;;;;19.87;52.87;100618.72;10542736;28;20383;-72
2021/06/04 07:54:43;;;;;;;4.32;3.45;;;;;;;20.13;52.60;100616.25;10524300;28;20127;-72
2021/06/04 07:59:44;;;;;;;5.85;3.72;;;;;;;20.22;52.71;100610.34;10542881;28;20040;-73
2021/06/04 08:04:47;;;;;;;6.32;3.30;;;;;;;20.17;52.69;100621.31;10524349;28;20044;-72
2021/06/04 08:09:48;;;;;;;3.95;3.05;;;;;;;20.39;52.85;100622.63;10524090;28;20074;-73
2021/06/04 08:14:50;;;;;;;4.57;3.35;;;;;;;20.53;53.33;100630.66;10541104;28;20109;-72
2021/06/04 08:19:52;;;;;;;5.05;2.80;;;;;;;21.22;49.91;100628.00;10541166;28;20036;-72
2021/06/04 08:24:53;;;;;;;4.45;3.13;;;;;;;21.10;51.37;100624.31;10537769;28;20089;-72
2021/06/04 08:29:55;;;;;;;3.80;3.15;;;;;;;21.27;51.80;100631.22;10541313;28;20401;-73
2021/06/04 08:34:57;;;;;;;4.38;2.60;;;;;;;21.72;49.88;100627.25;10522629;28;20048;-72
2021/06/04 08:39:58;;;;;;;4.40;2.40;;;;;;;21.90;48.13;100622.44;10540638;28;20046;-72
2021/06/04 08:45:14;;;;;;;5.43;3.00;;;;;;;21.72;50.48;100627.25;10523597;28;20157;-73
2021/06/04 08:50:32;;;;;;;3.87;2.70;;;;;;;21.65;49.33;100631.34;10541231;28;20043;-73
2021/06/04 08:55:36;;;;;;;2.78;2.58;;;;;;;21.63;50.12;100636.78;10539831;28;20052;-72
2021/06/04 09:00:43;;;;;;;4.60;2.40;;;;;;;21.84;50.20;100641.63;10540574;28;20043;-73
2021/06/04 09:05:50;;;;;;;6.85;3.17;;;;;;;21.82;50.87;100635.50;10540844;28;20086;-72
2021/06/04 09:11:04;;;;;;;4.63;3.30;;;;;;;21.51;51.09;100634.94;10522111;28;20119;-72
2021/06/04 09:16:29;;;;;;;3.78;3.38;;;;;;;22.06;50.86;100630.28;10537728;28;20137;-72
2021/06/04 09:21:34;;;;;;;6.25;4.35;;;;;;;22.27;51.04;100617.22;10538173;28;20044;-73
2021/06/04 09:26:36;;;;;;;5.30;3.78;;;;;;;22.37;47.79;100616.47;10542211;28;20072;-72
2021/06/04 09:31:45;;;;;;;4.93;3.38;;;;;;;22.36;48.70;100614.75;10530238;28;20044;-72
2021/06/04 09:36:49;;;;;;;5.40;3.42;;;;;;;22.46;49.32;100608.72;10529864;28;20044;-73
2021/06/04 09:41:53;;;;;;;7.70;3.42;;;;;;;22.71;48.46;100615.81;10529425;28;20055;-73
2021/06/04 09:46:58;;;;;;;4.28;3.05;;;;;;;22.84;49.18;100616.63;10529519;28;20085;-72
2021/06/04 09:52:38;;;;;;;2.93;2.57;;;;;;;23.02;49.50;100612.66;10528981;28;20047;-73
2021/06/04 09:58:14;;;;;;;4.80;2.80;;;;;;;23.20;48.20;100604.16;10529772;28;20040;-72
2021/06/04 10:03:30;;;;;;;5.20;2.65;;;;;;;23.74;48.19;100607.19;10529118;28;20139;-73
2021/06/04 10:08:40;;;;;;;5.35;2.88;;;;;;;23.65;49.16;100611.44;10547096;28;20111;-71
2021/06/04 10:13:46;;;;;;;7.03;3.00;;;;;;;23.56;48.97;100617.47;10547630;28;20089;-73
2021/06/04 10:18:48;;;;;;;7.65;2.88;;;;;;;23.69;47.72;100624.63;10528094;28;20494;-72
2021/06/04 10:23:53;;;;;;;5.85;3.17;;;;;;;23.91;46.50;100617.47;10511380;28;20143;-73
2021/06/04 10:29:16;;;;;;;4.43;3.30;;;;;;;24.07;46.36;100624.31;10545750;28;20066;-72
2021/06/04 10:34:38;;;;;;;5.10;3.00;;;;;;;23.78;48.05;100622.09;10546060;28;20056;-73
2021/06/04 10:39:50;;;;;;;3.78;3.00;;;;;;;24.25;46.78;100622.84;10545169;28;20067;-73
2021/06/04 10:45:18;;;;;;;6.20;3.33;;;;;;;24.39;48.25;100619.06;10545305;28;20044;-72
2021/06/04 10:50:33;;;;;;;6.55;3.03;;;;;;;25.33;44.37;100609.59;10526829;28;20047;-73
2021/06/04 10:55:43;;;;;;;7.63;3.30;;;;;;;25.22;45.17;100609.63;10544896;28;20085;-72
2021/06/04 11:00:52;;;;;;;7.03;3.88;;;;;;;24.98;46.54;100607.97;10526390;28;20446;-72
2021/06/04 11:06:15;;;;;;;4.25;2.72;;;;;;;25.81;42.96;100593.81;10545049;28;20043;-72
2021/06/04 11:11:44;;;;;;;11.25;2.88;;;;;;;25.73;43.51;100592.72;10545119;28;20051;-71
2021/06/04 11:17:03;;;;;;;4.93;3.42;;;;;;;25.35;44.93;100591.47;10544581;28;20040;-73
2021/06/04 11:22:20;;;;;;;5.15;3.17;;;;;;;26.20;43.64;100593.13;10543796;28;20078;-72
2021/06/04 11:27:34;;;;;;;5.55;3.65;;;;;;;26.07;45.84;100583.41;10525897;28;20044;-71
2021/06/04 11:32:43;;;;;;;7.88;3.45;;;;;;;26.53;42.88;100587.47;10524911;28;20113;-71
2021/06/04 11:38:12;;;;;;;16.63;3.70;;;;;;;26.78;41.63;100585.22;10543258;28;20051;-72
2021/06/04 11:43:14;;;;;;;4.20;3.20;;;;;;;26.61;42.04;100576.84;10544019;28;20040;-71
2021/06/04 11:48:25;;;;;;;3.97;2.90;;;;;;;26.84;42.87;100579.28;10524142;28;20117;-72
2021/06/04 11:53:36;;;;;;;3.25;2.72;;;;;;;27.10;42.62;100583.16;10542505;28;20500;-71
2021/06/04 11:58:38;;;;;;;4.10;2.20;;;;;;;26.88;43.67;100578.00;10541999;28;20051;-71
2021/06/04 12:03:51;;;;;;;3.78;1.90;;;;;;;26.52;39.99;100572.28;10541681;28;20390;-72
2021/06/04 12:08:58;;;;;;;1.55;1.40;;;;;;;25.96;40.50;100569.22;10542471;28;20043;-71
2021/06/04 12:13:59;;;;;;;1.92;1.20;;;;;;;26.35;39.07;100567.50;10543241;28;20044;-72
2021/06/04 12:19:23;;;;;;;1.98;1.40;;;;;;;26.15;39.87;100563.88;10541487;28;20044;-72
2021/06/04 12:24:24;;;;;;;2.97;1.30;;;;;;;25.82;40.29;100559.63;10541590;28;20048;-73
2021/06/04 12:29:26;;;;;;;2.22;1.42;;;;;;;26.21;38.56;100555.28;10522832;28;20051;-72
2021/06/04 12:34:31;;;;;;;2.75;1.38;;;;;;;26.19;39.17;100553.69;10522684;28;20127;-72
2021/06/04 12:39:36;;;;;;;1.63;1.38;;;;;;;26.00;41.88;100546.41;10522923;28;20044;-73
2021/06/04 12:44:40;;;;;;;3.03;1.80;;;;;;;25.83;43.08;100543.34;10541197;28;20060;-73
2021/06/04 12:49:41;;;;;;;4.97;1.73;;;;;;;25.80;42.93;100538.22;10522204;28;20120;-73
2021/06/04 12:54:43;;;;;;;2.97;1.98;;;;;;;25.72;42.53;100545.22;10506055;28;20052;-72
2021/06/04 12:59:45;;;;;;;3.10;1.80;;;;;;;25.80;43.81;100543.59;10540026;28;20089;-74
2021/06/04 13:04:51;;;;;;;4.45;1.92;;;;;;;26.22;43.69;100531.88;10522015;28;20052;-73
2021/06/04 13:10:12;;;;;;;3.47;2.10;;;;;;;26.24;43.34;100529.88;10541551;28;20078;-72
2021/06/04 13:15:16;;;;;;;4.50;2.00;;;;;;;25.97;41.21;100531.34;10540801;28;20040;-73
2021/06/04 13:20:31;;;;;;;1.95;1.58;;;;;;;26.02;40.54;100521.00;10540187;28;20039;-72
2021/06/04 13:25:33;;;;;;;2.17;1.67;;;;;;;25.71;42.63;100521.97;10522342;28;20042;-73
2021/06/04 13:30:38;;;;;;;2.85;1.45;;;;;;;25.71;39.26;100519.28;10539845;28;20067;-72
2021/06/04 13:35:45;;;;;;;6.97;1.80;;;;;;;26.12;40.43;100513.84;10521481;28;20055;-72
2021/06/04 13:40:50;;;;;;;1.48;1.20;;;;;;;26.22;40.83;100513.00;10521396;28;20568;-73
2021/06/04 13:45:52;;;;;;;2.08;1.40;;;;;;;26.11;39.33;100513.94;10539423;28;20044;-73
2021/06/04 13:51:08;;;;;;;2.10;1.48;;;;;;;25.70;39.75;100515.75;10521517;28;20374;-72
2021/06/04 13:56:32;;;;;;;1.70;1.52;;;;;;;25.88;39.78;100513.31;10540031;28;20386;-73
2021/06/04 14:01:49;;;;;;;1.95;1.15;;;;;;;26.42;38.27;100495.88;10521466;28;20102;-72
2021/06/04 14:06:52;;;;;;;2.22;1.60;;;;;;;26.20;40.26;100499.66;10539374;28;20085;-73
2021/06/04 14:11:59;;;;;;;3.10;1.42;;;;;;;26.54;38.15;100489.41;10538972;28;20044;-72
2021/06/04 14:17:02;;;;;;;2.95;1.45;;;;;;;26.54;38.19;100483.16;10528480;28;20105;-72
2021/06/04 14:22:26;;;;;;;4.28;1.70;;;;;;;26.27;40.26;100481.09;10547154;28;20401;-72
2021/06/04 14:27:27;;;;;;;2.00;1.33;;;;;;;26.13;40.83;100474.28;10528136;28;20044;-72
2021/06/04 14:32:32;;;;;;;4.10;1.35;;;;;;;26.30;39.49;100468.22;10546553;28;20546;-72
2021/06/04 14:37:35;;;;;;;4.00;1.75;;;;;;;26.61;41.27;100463.59;10562942;22;20123;-69
2021/06/04 14:42:37;;;;;;;2.05;1.50;;;;;;;26.83;38.08;100456.22;10513528;28;20516;-71
2021/06/04 14:47:40;;;;;;;3.20;1.60;;;;;;;27.46;37.82;100452.97;10547568;28;20127;-69
2021/06/04 14:52:43;;;;;;;2.45;1.90;;;;;;;27.92;38.03;100438.56;10548346;28;20460;-70
2021/06/04 14:57:45;;;;;;;8.50;2.10;;;;;;;27.80;37.59;100440.66;10548802;28;20044;-70
2021/06/04 15:02:48;;;;;;;2.92;2.10;;;;;;;27.53;38.93;100448.66;10548069;28;20541;-70
2021/06/04 15:07:51;;;;;;;2.10;1.67;;;;;;;27.59;37.31;100429.19;10529486;28;20554;-70
2021/06/04 15:12:54;;;;;;;4.82;2.17;;;;;;;28.16;35.91;100419.94;10546871;28;20048;-70
2021/06/04 15:17:58;;;;;;;4.80;1.65;;;;;;;28.29;36.54;100416.00;10548533;28;20583;-70
2021/06/04 15:23:03;;;;;;;2.42;1.80;;;;;;;29.23;34.80;100407.34;10529428;28;20560;-69
2021/06/04 15:28:07;;;;;;;1.83;1.55;;;;;;;28.32;37.40;100410.28;10529119;28;20048;-70
2021/06/04 15:33:09;;;;;;;4.50;1.70;;;;;;;27.90;36.68;100400.06;10545439;28;20058;-70
2021/06/04 15:38:11;;;;;;;3.15;1.90;;;;;;;27.76;37.14;100398.72;10529362;28;20456;-70
2021/06/04 15:43:17;;;;;;;2.58;1.50;;;;;;;27.37;37.48;100396.16;10545221;28;20489;-70
2021/06/04 15:48:21;;;;;;;2.90;1.88;;;;;;;27.98;36.67;100396.56;10544598;28;20098;-69
2021/06/04 15:53:25;;;;;;;3.05;1.92;;;;;;;27.80;37.78;100397.44;10544558;28;20093;-69
2021/06/04 15:58:26;;;;;;;1.65;1.55;;;;;;;28.07;37.02;100391.13;10544962;28;20482;-69
2021/06/04 16:03:28;;;;;;;3.10;1.90;;;;;;;27.62;38.10;100391.91;10530205;28;20066;-70
2021/06/04 16:08:30;;;;;;;2.17;1.52;;;;;;;27.48;37.48;100392.41;10510667;28;20040;-69
2021/06/04 16:13:32;;;;;;;2.25;1.80;;;;;;;27.23;38.14;100388.56;10545500;28;20052;-70
2021/06/04 16:18:34;;;;;;;2.67;1.80;;;;;;;26.97;37.70;100380.22;10545183;28;20085;-70
2021/06/04 16:23:36;;;;;;;3.35;1.80;;;;;;;27.03;37.85;100384.19;10545539;28;20044;-69
2021/06/04 16:28:39;;;;;;;2.53;1.83;;;;;;;26.66;38.47;100387.66;10544339;28;20040;-69
2021/06/04 16:33:44;;;;;;;4.30;2.00;;;;;;;26.55;39.45;100385.09;10543334;28;20051;-69
2021/06/04 16:38:45;;;;;;;4.03;2.43;;;;;;;26.36;38.96;100376.00;10542395;28;20523;-67
2021/06/04 16:43:47;;;;;;;3.28;2.90;;;;;;;26.25;39.64;100373.44;10543290;28;20078;-67
2021/06/04 16:48:49;;;;;;;3.50;3.20;;;;;;;26.20;39.70;100375.72;10524188;28;20067;-68
2021/06/04 16:53:50;;;;;;;3.83;3.00;;;;;;;25.88;40.61;100382.19;10543068;28;20044;-68
2021/06/04 16:58:53;;;;;;;2.38;2.17;;;;;;;26.04;39.82;100375.44;10541840;28;20084;-68
2021/06/04 17:03:54;;;;;;;2.58;2.10;;;;;;;25.83;39.72;100375.53;10524663;28;20497;-67
2021/06/04 17:08:56;;;;;;;2.38;2.17;;;;;;;25.60;40.47;100375.72;10543984;28;20424;-69
2021/06/04 17:13:57;;;;;;;2.53;1.90;;;;;;;25.37;41.87;100382.31;10542413;28;20051;-68
2021/06/04 17:18:59;;;;;;;3.13;2.10;;;;;;;25.30;42.60;100378.44;10547810;28;20154;-67
2021/06/04 17:24:01;;;;;;;5.85;2.38;;;;;;;25.27;41.60;100384.94;10541073;28;20547;-68
2021/06/04 17:29:03;;;;;;;1.75;1.65;;;;;;;25.23;41.74;100390.72;10541959;28;20044;-68
2021/06/04 17:34:05;;;;;;;2.50;2.17;;;;;;;25.27;41.43;100382.22;10523814;28;20046;-68
2021/06/04 17:39:09;;;;;;;2.63;2.38;;;;;;;25.32;41.34;100389.91;10541921;28;20044;-68
2021/06/04 17:44:10;;;;;;;2.80;2.60;;;;;;;25.16;42.48;100387.72;10542834;28;20097;-68
2021/06/04 17:49:12;;;;;;;2.97;2.78;;;;;;;25.20;41.75;100383.78;10528400;28;20044;-69
2021/06/04 17:54:14;;;;;;;2.40;2.20;;;;;;;25.27;41.08;100394.84;10514299;28;20071;-68
2021/06/04 17:59:16;;;;;;;4.30;2.30;;;;;;;25.06;42.10;100379.56;10530596;28;20139;-68
2021/06/04 18:04:17;;;;;;;3.75;2.95;;;;;;;25.04;42.91;100381.53;10548356;28;20040;-68
2021/06/04 18:09:19;;;;;;;3.58;3.35;;;;;;;24.71;43.59;100385.28;10516316;28;20189;-68
2021/06/04 18:14:23;;;;;;;3.58;2.65;;;;;;;24.64;42.97;100395.69;10550138;28;20044;-68
2021/06/04 18:19:26;;;;;;;5.45;3.03;;;;;;;24.67;43.02;100390.06;10548707;28;20043;-69
2021/06/04 18:24:27;;;;;;;3.45;2.85;;;;;;;24.59;42.97;100378.28;10549490;28;20104;-69
2021/06/04 18:29:29;;;;;;;6.13;2.90;;;;;;;24.55;44.20;100391.13;10550997;28;20118;-73
2021/06/04 18:34:34;;;;;;;3.50;3.00;;;;;;;24.32;46.17;100386.78;10533259;28;20493;-74
2021/06/04 18:39:36;;;;;;;3.47;3.15;;;;;;;24.05;46.21;100384.56;10538501;28;20040;-72
2021/06/04 18:44:39;;;;;;;3.42;3.00;;;;;;;23.90;47.84;100381.28;10531889;28;20054;-73
2021/06/04 18:49:42;;;;;;;3.55;3.25;;;;;;;23.73;50.42;100381.81;10550023;28;20485;-73
2021/06/04 18:54:48;;;;;;;4.55;3.78;;;;;;;23.47;50.95;100378.56;10532915;28;20052;-73
2021/06/04 18:59:49;;;;;;;6.18;4.00;;;;;;;23.42;50.67;100384.28;10547698;28;20052;-73
2021/06/04 19:04:52;;;;;;;3.85;3.50;;;;;;;22.92;51.48;100386.41;10546504;28;20044;-73
2021/06/04 19:09:53;;;;;;;4.00;3.70;;;;;;;22.62;52.82;100390.47;10548406;28;20051;-72
2021/06/04 19:14:55;;;;;;;5.05;3.55;;;;;;;22.37;53.46;100393.31;10545151;28;20040;-73
2021/06/04 19:19:56;;;;;;;4.40;4.00;;;;;;;22.43;53.89;100398.19;10546845;28;20089;-72
2021/06/04 19:24:58;;;;;;;4.93;3.97;;;;;;;22.36;53.21;100396.94;10527623;28;20413;-73
2021/06/04 19:30:00;;;;;;;4.63;4.25;;;;;;;22.04;53.86;100404.66;10531582;28;20155;-73
2021/06/04 19:35:03;;;;;;;4.38;4.03;;;;;;;21.83;54.13;100405.28;10546895;28;20040;-73
2021/06/04 19:40:09;;;;;;;5.53;5.03;;;;;;;21.82;56.15;100400.00;10530756;28;20378;-73
2021/06/04 19:45:12;;;;;;;6.43;5.87;;;;;;;21.98;56.17;100397.94;10553495;28;20047;-73
2021/06/04 19:50:14;;;;;;;5.82;5.32;;;;;;;22.02;55.10;100398.56;10547163;28;20040;-73
2021/06/04 19:55:22;;;;;;;6.68;6.07;;;;;;;21.52;56.33;100411.97;10550269;28;20396;-74
2021/06/04 20:00:28;;;;;;;6.13;5.63;;;;;;;21.76;56.12;100406.66;10513215;28;20050;-75
2021/06/04 20:05:31;;;;;;;7.80;7.03;;;;;;;21.83;56.03;100407.94;10549906;28;20122;-73
2021/06/04 20:10:37;;;;;;;7.72;7.13;;;;;;;21.66;56.59;100400.28;10545208;28;20043;-73
2021/06/04 20:15:39;;;;;;;;;;;;;;;21.37;57.38;100408.56;10544328;28;20428;-73
2021/06/04 20:20:45;;;;;;;9.25;8.48;;;;;;;21.27;57.18;100411.97;10542576;28;19920;-73
2021/06/04 20:25:47;;;;;;;9.07;8.37;;;;;;;21.29;57.59;100408.19;10528476;28;20048;-73
2021/06/04 20:30:54;;;;;;;8.82;8.02;;;;;;;21.12;57.94;100409.41;10542005;28;20044;-73
2021/06/04 20:35:57;;;;;;;8.75;8.05;;;;;;;20.80;58.68;100416.94;10554201;22;20054;-71
2021/06/04 20:41:00;;;;;;;8.73;7.97;;;;;;;20.59;59.02;100421.09;10540594;28;20064;-72
2021/06/04 20:46:04;;;;;;;9.40;8.65;;;;;;;20.52;59.77;100419.78;10521861;28;20481;-73
2021/06/04 20:51:12;;;;;;;8.25;7.55;;;;;;;20.33;59.91;100420.13;10540474;28;20112;-73
2021/06/04 20:56:15;;;;;;;7.68;6.75;;;;;;;20.53;59.06;100417.00;10539993;28;20044;-73
2021/06/04 21:01:17;;;;;;;7.47;6.90;;;;;;;20.21;59.46;100412.94;10540048;28;20047;-73
2021/06/04 21:06:20;;;;;;;7.70;7.20;;;;;;;19.94;60.36;100404.91;10540250;28;20489;-74
2021/06/04 21:11:24;;;;;;;7.97;7.47;;;;;;;19.70;61.24;100410.88;10540549;28;20043;-73
2021/06/04 21:16:25;;;;;;;7.50;6.97;;;;;;;19.59;60.86;100400.00;10540090;28;20493;-73
2021/06/04 21:21:27;;;;;;;8.02;7.50;;;;;;;19.92;61.71;100407.66;10541144;28;20040;-73
2021/06/04 21:26:29;;;;;;;8.57;7.72;;;;;;;19.88;60.35;100403.50;10548882;28;20040;-73
2021/06/04 21:31:30;;;;;;;7.35;6.85;;;;;;;19.48;61.09;100407.78;10530430;28;20105;-73
2021/06/04 21:36:33;;;;;;;7.10;6.50;;;;;;;19.10;62.48;100406.56;10548568;28;20146;-73
2021/06/04 21:41:36;;;;;;;7.05;6.55;;;;;;;19.05;62.85;100398.00;10529568;28;20040;-73
2021/06/04 21:46:39;;;;;;;9.80;7.07;;;;;;;18.83;63.53;100400.25;10529160;28;20055;-74
2021/06/04 21:51:53;;;;;;;7.25;6.75;;;;;;;18.82;63.57;100399.41;10529024;28;20044;-73
2021/06/04 21:56:55;;;;;;;7.82;7.32;;;;;;;19.08;63.47;100402.25;10547281;28;20557;-73
2021/06/04 22:01:57;;;;;;;8.65;7.95;;;;;;;18.94;63.13;100400.44;10547157;28;20494;-73
2021/06/04 22:06:58;;;;;;;9.73;8.95;;;;;;;18.84;62.89;100394.81;10546870;28;20036;-72
2021/06/04 22:12:02;;;;;;;9.32;8.68;;;;;;;18.75;63.66;100399.84;10546483;28;20173;-72
2021/06/04 22:17:04;;;;;;;9.75;8.82;;;;;;;19.04;63.67;100404.28;10546320;28;20048;-72
2021/06/04 22:22:05;;;;;;;8.60;8.00;;;;;;;19.09;62.97;100396.88;10546701;28;20044;-72
2021/06/04 22:27:07;;;;;;;8.80;8.07;;;;;;;18.87;63.82;100399.97;10546261;28;20056;-73
2021/06/04 22:32:09;;;;;;;11.70;7.60;;;;;;;19.11;62.99;100396.75;10546614;28;20097;-73
2021/06/04 22:37:10;;;;;;;9.40;8.65;;;;;;;18.72;63.82;100395.56;10527282;28;20070;-73
2021/06/04 22:42:13;;;;;;;9.20;8.25;;;;;;;18.72;64.26;100387.56;10545928;28;20550;-73
2021/06/04 22:47:15;;;;;;;10.15;9.23;;;;;;;18.73;64.10;100385.78;10527852;28;20059;-73
2021/06/04 22:52:18;;;;;;;8.60;8.00;;;;;;;18.39;64.80;100382.41;10546050;28;20101;-73
2021/06/04 22:57:21;;;;;;;8.27;7.72;;;;;;;18.74;63.95;100377.69;10527899;28;20127;-73
2021/06/04 23:02:22;;;;;;;8.88;8.18;;;;;;;18.18;65.30;100371.22;10545142;28;20040;-73
2021/06/04 23:07:24;;;;;;;9.68;8.98;;;;;;;18.22;65.56;100380.72;10545106;28;20097;-73
2021/06/04 23:12:25;;;;;;;8.40;7.88;;;;;;;18.35;65.21;100381.72;10526575;28;20150;-73
2021/06/04 23:17:27;;;;;;;9.30;8.57;;;;;;;18.13;65.30;100382.13;10545517;28;20082;-73
2021/06/04 23:22:29;;;;;;;8.63;7.97;;;;;;;18.02;65.94;100384.56;10544651;28;20044;-73
2021/06/04 23:27:31;;;;;;;8.73;8.13;;;;;;;18.02;65.94;100384.56;10544296;28;20489;-73